TimeEDT,TemperatureF,Dew PointF,Humidity,Sea Level PressureIn,VisibilityMPH,Wind Direction,Wind SpeedMPH,Gust SpeedMPH,PrecipitationIn,Events,Conditions,WindDirDegrees,DateUTC
12:14 AM,49.3,34.7,57,29.64,10.0,South,4.6,-,N/A,,Overcast,170,2012-10-19 04:14:00
12:35 AM,49.5,34.7,57,29.64,10.0,SSE,3.5,-,N/A,,Overcast,160,2012-10-19 04:35:00
12:55 AM,48.7,35.1,59,29.63,10.0,SE,3.5,-,N/A,,Overcast,140,2012-10-19 04:55:00
1:15 AM,47.7,34.9,61,29.62,10.0,SE,4.6,-,N/A,,Overcast,130,2012-10-19 05:15:00
1:35 AM,47.1,34.9,62,29.61,10.0,ESE,3.5,-,N/A,,Overcast,120,2012-10-19 05:35:00
1:54 AM,47.7,34.9,61,29.61,10.0,Calm,Calm,-,N/A,,Mostly Cloudy,0,2012-10-19 05:54:00
2:15 AM,46.6,35.2,65,29.61,10.0,SE,4.6,-,N/A,,Overcast,140,2012-10-19 06:15:00
2:35 AM,44.6,35.4,70,29.60,10.0,SE,6.9,-,N/A,,Scattered Clouds,130,2012-10-19 06:35:00
2:54 AM,44.8,35.6,70,29.60,10.0,SE,8.1,-,N/A,,Scattered Clouds,130,2012-10-19 06:54:00
3:15 AM,44.8,34.9,68,29.60,10.0,SE,6.9,-,N/A,,Clear,140,2012-10-19 07:15:00
3:35 AM,44.4,34.7,69,29.60,10.0,SE,6.9,-,N/A,,Clear,130,2012-10-19 07:35:00
3:54 AM,44.6,35.6,71,29.59,10.0,ESE,5.8,-,N/A,,Clear,120,2012-10-19 07:54:00
4:15 AM,45.7,35.2,67,29.60,10.0,SE,5.8,-,N/A,,Mostly Cloudy,130,2012-10-19 08:15:00
4:35 AM,46.4,34.7,64,29.59,10.0,SE,6.9,-,N/A,,Overcast,140,2012-10-19 08:35:00
4:54 AM,45.9,34.7,65,29.59,10.0,SE,5.8,-,N/A,,Overcast,130,2012-10-19 08:54:00
5:15 AM,46.6,34.7,63,29.59,10.0,ESE,5.8,-,N/A,,Overcast,120,2012-10-19 09:15:00
5:35 AM,46.8,34.3,62,29.58,10.0,ESE,6.9,-,N/A,,Overcast,120,2012-10-19 09:35:00
5:55 AM,46.8,34.5,62,29.58,10.0,ESE,5.8,-,N/A,,Overcast,110,2012-10-19 09:55:00
6:15 AM,47.3,34.2,60,29.58,10.0,ESE,9.2,-,N/A,,Overcast,120,2012-10-19 10:15:00
6:35 AM,47.5,34.3,60,29.58,10.0,SE,9.2,-,N/A,,Overcast,140,2012-10-19 10:35:00
6:55 AM,47.7,34.7,61,29.57,10.0,SE,9.2,-,N/A,,Overcast,130,2012-10-19 10:55:00
7:15 AM,48.2,34.7,60,29.57,10.0,SE,9.2,-,N/A,,Overcast,140,2012-10-19 11:15:00
7:35 AM,48.4,35.1,60,29.57,10.0,SE,8.1,-,N/A,,Overcast,140,2012-10-19 11:35:00
7:55 AM,48.2,36.0,63,29.56,10.0,SE,8.1,-,N/A,,Overcast,140,2012-10-19 11:55:00
8:14 AM,48.6,36.5,63,29.56,10.0,SE,6.9,-,N/A,,Overcast,140,2012-10-19 12:14:00
8:35 AM,49.1,36.9,63,29.57,10.0,SSE,9.2,-,N/A,,Overcast,150,2012-10-19 12:35:00
8:55 AM,49.3,37.4,64,29.57,10.0,SSE,11.5,17.3,N/A,,Overcast,160,2012-10-19 12:55:00
9:14 AM,49.1,37.6,64,29.58,10.0,SSE,9.2,-,N/A,Rain,Light Rain,160,2012-10-19 13:14:00
9:35 AM,48.7,38.3,67,29.58,10.0,SSE,9.2,16.1,N/A,,Light Drizzle,160,2012-10-19 13:35:00
9:55 AM,48.6,40.3,73,29.57,10.0,SSE,11.5,17.3,N/A,,Light Drizzle,150,2012-10-19 13:55:00
10:14 AM,49.1,40.8,73,29.57,10.0,SSE,11.5,16.1,N/A,,Light Drizzle,160,2012-10-19 14:14:00
10:35 AM,48.6,41.0,75,29.57,10.0,SSE,10.4,18.4,N/A,Rain,Light Rain,160,2012-10-19 14:35:00
10:55 AM,48.4,41.4,77,29.57,10.0,SSE,9.2,-,N/A,,Light Drizzle,160,2012-10-19 14:55:00
11:14 AM,48.2,41.5,78,29.57,10.0,South,8.1,-,N/A,Rain,Rain,180,2012-10-19 15:14:00
11:35 AM,48.7,42.3,78,29.56,10.0,SSE,11.5,-,N/A,,Light Drizzle,160,2012-10-19 15:35:00
11:55 AM,50.7,41.4,70,29.56,10.0,SSE,16.1,19.6,N/A,,Overcast,160,2012-10-19 15:55:00
12:15 PM,52.0,40.3,64,29.56,10.0,SSE,15.0,21.9,N/A,,Overcast,160,2012-10-19 16:15:00
12:35 PM,51.8,39.6,63,29.56,10.0,SSE,16.1,23.0,N/A,,Overcast,160,2012-10-19 16:35:00
12:55 PM,51.6,39.4,63,29.56,10.0,South,15.0,25.3,N/A,Rain,Light Rain,180,2012-10-19 16:55:00
1:15 PM,51.8,39.0,62,29.55,10.0,South,15.0,20.7,N/A,,Overcast,170,2012-10-19 17:15:00
1:35 PM,51.1,39.4,64,29.54,10.0,South,11.5,17.3,N/A,,Light Drizzle,170,2012-10-19 17:35:00
1:54 PM,53.6,39.6,59,29.54,10.0,South,11.5,-,N/A,,Overcast,180,2012-10-19 17:54:00
2:15 PM,54.3,39.4,57,29.53,10.0,SSW,10.4,-,N/A,,Overcast,200,2012-10-19 18:15:00
2:34 PM,53.4,37.8,55,29.53,10.0,South,15.0,19.6,N/A,,Overcast,190,2012-10-19 18:34:00
2:55 PM,55.6,37.4,50,29.53,10.0,South,13.8,17.3,N/A,,Overcast,190,2012-10-19 18:55:00
3:15 PM,54.5,37.0,52,29.53,10.0,South,11.5,-,N/A,,Overcast,170,2012-10-19 19:15:00
3:34 PM,53.6,36.9,53,29.53,10.0,SSE,12.7,16.1,N/A,,Overcast,160,2012-10-19 19:34:00
3:55 PM,53.2,37.2,55,29.53,10.0,South,9.2,-,N/A,,Overcast,170,2012-10-19 19:55:00
4:14 PM,53.6,37.0,53,29.53,10.0,South,9.2,-,N/A,,Overcast,180,2012-10-19 20:14:00
4:35 PM,54.0,37.4,54,29.54,10.0,South,9.2,-,N/A,,Overcast,170,2012-10-19 20:35:00
4:55 PM,53.8,37.4,54,29.53,10.0,South,8.1,-,N/A,,Overcast,170,2012-10-19 20:55:00
5:14 PM,53.6,36.9,53,29.54,10.0,South,11.5,17.3,N/A,,Overcast,170,2012-10-19 21:14:00
5:35 PM,53.2,37.6,55,29.54,10.0,South,9.2,-,N/A,,Overcast,170,2012-10-19 21:35:00
5:55 PM,52.9,37.8,56,29.55,10.0,South,11.5,-,N/A,,Overcast,180,2012-10-19 21:55:00
6:14 PM,52.2,37.9,58,29.55,10.0,South,10.4,-,N/A,,Overcast,190,2012-10-19 22:14:00
6:35 PM,51.8,38.3,60,29.56,10.0,South,16.1,21.9,N/A,,Overcast,170,2012-10-19 22:35:00
6:55 PM,50.0,40.3,69,29.57,10.0,South,11.5,17.3,N/A,,Light Drizzle,170,2012-10-19 22:55:00
7:14 PM,48.7,41.9,77,29.57,10.0,SSE,8.1,-,N/A,,Light Drizzle,160,2012-10-19 23:14:00
7:35 PM,48.2,41.9,79,29.58,10.0,SSE,8.1,-,N/A,,Drizzle,160,2012-10-19 23:35:00
7:54 PM,47.5,42.1,82,29.58,10.0,SSW,8.1,-,N/A,,Drizzle,200,2012-10-19 23:54:00
8:15 PM,46.8,41.5,82,29.57,10.0,South,8.1,-,N/A,,Drizzle,190,2012-10-20 00:15:00
8:35 PM,46.6,42.1,84,29.57,10.0,South,4.6,-,N/A,,Light Drizzle,190,2012-10-20 00:35:00
8:54 PM,46.4,42.3,85,29.57,10.0,South,3.5,-,N/A,,Drizzle,170,2012-10-20 00:54:00
9:15 PM,46.4,42.8,87,29.57,10.0,SSE,3.5,-,N/A,Rain,Rain,160,2012-10-20 01:15:00
9:35 PM,46.4,42.8,87,29.57,7.0,SSE,3.5,-,N/A,,Drizzle,150,2012-10-20 01:35:00
9:55 PM,46.0,42.8,88,29.57,7.0,SSE,4.6,-,N/A,,Drizzle,160,2012-10-20 01:55:00
10:15 PM,45.9,42.8,89,29.57,7.0,SSE,4.6,-,N/A,,Drizzle,160,2012-10-20 02:15:00
10:34 PM,45.9,43.0,90,29.56,7.0,SSE,3.5,-,N/A,,Drizzle,160,2012-10-20 02:34:00
10:55 PM,45.9,43.2,90,29.57,7.0,SSE,3.5,-,N/A,,Drizzle,160,2012-10-20 02:55:00
11:15 PM,45.9,43.2,90,29.57,7.0,South,4.6,-,N/A,Rain,Light Rain,170,2012-10-20 03:15:00
11:35 PM,45.9,43.2,90,29.57,10.0,South,3.5,-,N/A,,Light Drizzle,190,2012-10-20 03:35:00
11:55 PM,45.7,43.0,90,29.57,7.0,SSW,4.6,-,N/A,Rain,Light Rain,200,2012-10-20 03:55:00